Tuesday, December 18, 2018, 5:00 PM EST
Back to Local

KUUU, Newport State Airport

Location: Middletown, RI, United States Lat: 41.533
Local Time: 5:00 PM EST (22:00 GMT) Lon: -71.283
Time Zone: US/Eastern Elev: 170 ft

Show me the last for .
Show Coded

Time T Td Feel RH Dir Speed Gust Alt SLP Vis Weather Sky Remarks
2018-12-18 15:53 31 12 16 44 320° 18 29 29.94 29.93 10 CLR Peak wind: 32 mph (28 kts) from 320° at 00 min
2018-12-18 14:53 33 12 18 41 310° 23 36 29.91 29.90 10 CLR Peak wind: 35 mph (31 kts) from 320° at 53 min
2018-12-18 13:53 33 12 18 41 320° 23 33 29.88 29.88 10 CLR Peak wind: 34 mph (30 kts) from 320° at 03 min
2018-12-18 12:53 32 11 17 40 320° 20 32 29.85 29.85 10 CLR Peak wind: 36 mph (32 kts) from 330° at 13 min
6-hr Min Temp (1pm): 25.0°F
6-hr Max Temp (1pm): 32.0°F
2018-12-18 11:53 31 11 15 42 340° 23 36 29.84 29.83 10 CLR Peak wind: 40 mph (35 kts) from 320° at 05 min
2018-12-18 10:53 29 10 13 44 330° 25 35 29.84 29.84 10 CLR Peak wind: 43 mph (38 kts) from 320° at 14 min
2018-12-18 09:53 28 10 11 46 320° 28 38 29.83 29.83 10 CLR Peak wind: 41 mph (36 kts) from 320° at 30 min
2018-12-18 08:53 26 9 6 47 330° 29 47 29.82 29.82 10 CLR Peak wind: 47 mph (41 kts) from 310° at 47 min
2018-12-18 07:53 25 10 7 52 310° 21 36 29.79 29.78 10 CLR Peak wind: 46 mph (40 kts) from 310° at 15 min
2018-12-18 06:53 25 10 7 52 320° 22 37 29.76 29.76 10 FEW045 Peak wind: 42 mph (37 kts) from 320° at 12 min
6-hr Min Temp (7am): 25.0°F
6-hr Max Temp (7am): 37.9°F
2018-12-18 05:53 27 11 9 50 320° 28 39 29.72 29.72 10 FEW046 Peak wind: 42 mph (37 kts) from 320° at 06 min
2018-12-18 04:53 29 13 11 50 310° 25 43 29.68 29.67 10 CLR Peak wind: 44 mph (39 kts) from 320° at 36 min
2018-12-18 03:53 31 15 14 51 310° 21 39 29.65 29.65 10 SCT043 SCT050 Peak wind: 40 mph (35 kts) from 310° at 38 min
2018-12-18 02:53 34 19 19 53 290° 24 36 29.62 29.62 10 BKN047 OVC055 Peak wind: 35 mph (31 kts) from 300° at 53 min
2018-12-18 01:53 35 22 20 58 300° 25 39 29.60 29.60 10 SCT042 SCT049 Peak wind: 40 mph (35 kts) from 280° at 12 min
2018-12-18 00:53 38 25 25 59 290° 20 32 29.58 29.58 10 OVC080 Peak wind: 32 mph (28 kts) from 280° at 52 min
6-hr Min Temp (1am): 37.9°F
6-hr Max Temp (1am): 39.9°F
2018-12-17 23:53 38 28 27 67 280° 12 25 29.59 29.59 10 OVC085 24-hr Min Temp (12am): 36.0°F
24-hr Max Temp (12am): 42.1°F
2018-12-17 22:53 39 28 29 64 280° 12 22 29.60 29.60 10 OVC085 None
2018-12-17 21:53 38 28 29 67 270° 10 17 29.61 - 10 OVC080 None
2018-12-17 20:53 38 28 28 67 280° 8 20 29.61 29.61 10 OVC075 None
2018-12-17 19:53 39 28 28 64 290° 17 24 29.60 29.60 10 CLR None
2018-12-17 18:53 40 28 30 62 290° 12 23 29.59 29.59 10 OVC050 6-hr Min Temp (7pm): 39.9°F
6-hr Max Temp (7pm): 42.1°F
2018-12-17 17:53 41 29 31 61 300° 14 24 29.57 29.57 10 OVC060 None

Support USWX by starting your Amazon purchase here.